createdAt,value
2018-05-02T00:02:26.128Z,6.30
2018-05-02T00:04:54.493Z,6.37
2018-05-02T00:07:22.666Z,5.97
2018-05-02T00:09:50.840Z,7.10
2018-05-02T00:12:19.038Z,6.93
2018-05-02T00:14:47.207Z,6.70
2018-05-02T00:17:15.373Z,6.80
2018-05-02T00:19:43.572Z,6.75
2018-05-02T00:22:11.757Z,6.82
2018-05-02T00:24:39.936Z,7.37
2018-05-02T00:27:08.152Z,6.70
2018-05-02T00:29:36.306Z,6.60
2018-05-02T00:32:04.484Z,7.05
2018-05-02T00:34:32.649Z,7.68
2018-05-02T00:37:00.830Z,7.62
2018-05-02T00:39:28.978Z,7.90
2018-05-02T00:41:57.223Z,8.00
2018-05-02T00:44:25.387Z,8.00
2018-05-02T00:46:53.575Z,8.27
2018-05-02T00:49:21.725Z,8.68
2018-05-02T00:51:49.907Z,8.50
2018-05-02T00:54:18.079Z,8.63
2018-05-02T00:56:46.261Z,8.65
2018-05-02T00:59:14.705Z,9.02
2018-05-02T01:01:42.866Z,8.82
2018-05-02T01:04:11.018Z,8.73
2018-05-02T01:06:39.166Z,9.38
2018-05-02T01:09:07.579Z,9.10
2018-05-02T01:11:35.736Z,9.40
2018-05-02T01:14:03.879Z,9.52
2018-05-02T01:16:32.072Z,9.25
2018-05-02T01:19:00.244Z,9.35
2018-05-02T01:21:28.423Z,9.73
2018-05-02T01:23:56.631Z,10.10
2018-05-02T01:26:25.141Z,11.23
2018-05-02T01:28:53.311Z,11.45
2018-05-02T01:31:21.526Z,11.05
2018-05-02T01:33:49.693Z,11.93
2018-05-02T01:36:17.879Z,12.17
2018-05-02T01:38:46.034Z,12.00
2018-05-02T01:41:14.198Z,12.50
2018-05-02T01:43:42.372Z,11.98
2018-05-02T01:46:10.554Z,11.38
2018-05-02T01:48:38.778Z,11.98
2018-05-02T01:51:06.951Z,12.70
2018-05-02T01:53:35.128Z,13.20
2018-05-02T01:56:03.350Z,13.20
2018-05-02T01:58:31.524Z,12.70
2018-05-02T02:00:59.692Z,13.15
2018-05-02T02:03:27.887Z,13.05
2018-05-02T02:05:56.060Z,13.62
2018-05-02T02:08:24.221Z,14.30
2018-05-02T02:10:52.439Z,13.95
2018-05-02T02:13:20.620Z,13.65
2018-05-02T02:15:48.786Z,14.02
2018-05-02T02:18:16.942Z,13.13
2018-05-02T02:20:45.122Z,13.90
2018-05-02T02:23:13.285Z,13.53
2018-05-02T02:25:41.614Z,13.57
2018-05-02T02:28:09.796Z,14.20
2018-05-02T02:30:37.978Z,14.77
2018-05-02T02:33:06.116Z,14.68
2018-05-02T02:35:34.302Z,14.32
2018-05-02T02:38:02.489Z,15.57
2018-05-02T02:40:30.975Z,15.80
2018-05-02T02:42:59.168Z,16.40
2018-05-02T02:45:27.338Z,17.15
2018-05-02T02:47:55.522Z,16.40
2018-05-02T02:50:23.680Z,16.17
2018-05-02T02:52:51.873Z,16.70
2018-05-02T02:55:20.086Z,19.00
2018-05-02T02:57:48.298Z,18.70
2018-05-02T03:00:16.452Z,17.83
2018-05-02T03:02:44.641Z,18.10
2018-05-02T03:05:12.854Z,16.92
2018-05-02T03:07:41.007Z,18.02
2018-05-02T03:10:09.192Z,19.98
2018-05-02T03:12:37.340Z,20.17
2018-05-02T03:15:05.542Z,20.40
2018-05-02T03:17:33.743Z,20.77
2018-05-02T03:20:01.937Z,21.40
2018-05-02T03:22:30.128Z,21.05
2018-05-02T03:24:58.320Z,21.25
2018-05-02T03:27:26.508Z,20.90
2018-05-02T03:29:54.665Z,20.60
2018-05-02T03:32:22.864Z,20.98
2018-05-02T03:34:51.009Z,22.50
2018-05-02T03:37:19.275Z,22.98
2018-05-02T03:39:47.447Z,21.27
2018-05-02T03:42:15.648Z,21.87
2018-05-02T03:44:43.810Z,21.17
2018-05-02T03:47:11.978Z,21.73
2018-05-02T03:49:40.126Z,21.60
2018-05-02T03:52:08.285Z,21.98
2018-05-02T03:54:36.494Z,22.02
2018-05-02T03:57:04.647Z,20.90
2018-05-02T04:00:10.268Z,22.30
2018-05-02T04:03:38.306Z,22.33
2018-05-02T04:06:44.825Z,22.23
2018-05-02T04:09:13.045Z,22.42
2018-05-02T04:11:41.221Z,22.00
2018-05-02T04:14:09.383Z,22.20
2018-05-02T04:16:37.561Z,23.87
2018-05-02T04:19:05.874Z,23.20
2018-05-02T04:21:34.028Z,23.47
2018-05-02T04:24:02.187Z,23.70
2018-05-02T04:26:30.379Z,22.92
2018-05-02T04:28:58.553Z,22.40
2018-05-02T04:31:26.757Z,23.27
2018-05-02T04:33:54.916Z,22.15
2018-05-02T04:36:23.089Z,22.25
2018-05-02T04:38:51.230Z,21.10
2018-05-02T04:41:19.401Z,21.90
2018-05-02T04:43:47.574Z,21.77
2018-05-02T04:46:15.750Z,21.17
2018-05-02T04:48:43.902Z,21.27
2018-05-02T04:51:12.196Z,21.12
2018-05-02T04:53:40.574Z,21.45
2018-05-02T04:56:08.779Z,20.60
2018-05-02T04:58:36.918Z,21.60
2018-05-02T05:01:05.077Z,20.45
2018-05-02T05:03:33.487Z,21.00
2018-05-02T05:06:01.696Z,21.10
2018-05-02T05:08:29.907Z,20.30
2018-05-02T05:10:58.096Z,20.20
2018-05-02T05:13:26.246Z,19.92
2018-05-02T05:15:54.405Z,19.73
2018-05-02T05:18:22.597Z,19.77
2018-05-02T05:20:50.767Z,19.45
2018-05-02T05:23:18.948Z,19.58
2018-05-02T05:25:47.360Z,19.35
2018-05-02T05:28:15.591Z,18.77
2018-05-02T05:30:43.706Z,19.45
2018-05-02T05:33:11.886Z,18.40
2018-05-02T05:35:40.058Z,19.37
2018-05-02T05:38:08.311Z,19.20
2018-05-02T05:40:36.480Z,19.73
2018-05-02T05:43:04.667Z,19.30
2018-05-02T05:45:32.843Z,18.45
2018-05-02T05:48:01.029Z,19.50
2018-05-02T05:50:29.183Z,19.25
2018-05-02T05:52:57.344Z,18.73
2018-05-02T05:55:25.522Z,18.73
2018-05-02T05:57:53.683Z,18.45
2018-05-02T06:00:21.866Z,17.73
2018-05-02T06:02:50.323Z,16.92
2018-05-02T06:05:18.487Z,16.70
2018-05-02T06:07:46.679Z,15.18
2018-05-02T06:10:14.837Z,14.20
2018-05-02T06:12:43.185Z,14.05
2018-05-02T06:15:11.316Z,14.02
2018-05-02T06:17:39.480Z,14.25
2018-05-02T06:20:07.652Z,14.07
2018-05-02T06:22:35.822Z,12.82
2018-05-02T06:25:04.076Z,13.80
2018-05-02T06:27:32.229Z,12.02
2018-05-02T06:30:00.416Z,12.10
2018-05-02T06:32:28.591Z,10.90
2018-05-02T06:34:56.775Z,10.95
2018-05-02T06:37:24.969Z,11.00
2018-05-02T06:39:53.164Z,10.20
2018-05-02T06:42:21.338Z,9.63
2018-05-02T06:44:49.528Z,9.45
2018-05-02T06:47:17.688Z,8.70
2018-05-02T06:49:45.894Z,8.40
2018-05-02T06:52:14.040Z,7.60
2018-05-02T06:54:42.293Z,8.07
2018-05-02T06:57:10.369Z,7.78
2018-05-02T06:59:38.609Z,8.20
2018-05-02T07:02:06.860Z,7.80
2018-05-02T07:04:34.956Z,7.90
2018-05-02T07:07:03.363Z,7.62
2018-05-02T07:09:31.473Z,7.20
2018-05-02T07:12:00.702Z,7.50
2018-05-02T07:14:29.235Z,7.10
2018-05-02T07:16:57.966Z,6.95
2018-05-02T07:19:26.949Z,7.13
2018-05-02T07:21:55.367Z,6.47
2018-05-02T07:24:24.407Z,6.60
2018-05-02T07:26:54.598Z,7.20
2018-05-02T07:29:23.498Z,6.40
2018-05-02T07:31:51.724Z,6.30
2018-05-02T07:34:19.937Z,6.25
2018-05-02T07:36:48.123Z,6.25
2018-05-02T07:39:16.427Z,6.10
2018-05-02T07:41:44.730Z,6.20
2018-05-02T07:44:12.971Z,6.10
2018-05-02T07:46:41.373Z,6.00
2018-05-02T07:49:09.724Z,5.90
2018-05-02T07:51:37.956Z,5.65
2018-05-02T07:54:06.144Z,5.68
2018-05-02T07:56:34.914Z,5.47
2018-05-02T07:59:03.135Z,5.30
2018-05-02T08:01:31.425Z,5.35
2018-05-02T08:04:00.047Z,5.10
2018-05-02T08:06:28.270Z,5.25
2018-05-02T08:08:56.472Z,5.22
2018-05-02T08:11:24.655Z,4.85
2018-05-02T08:13:53.598Z,4.93
2018-05-02T08:16:21.846Z,5.10
2018-05-02T08:18:49.985Z,4.68
2018-05-02T08:21:18.162Z,4.90
2018-05-02T08:23:49.077Z,4.50
2018-05-02T08:26:17.228Z,4.40
2018-05-02T08:28:45.411Z,4.05
2018-05-02T08:31:14.160Z,4.40
2018-05-02T08:33:42.370Z,4.12
2018-05-02T08:36:10.579Z,4.03
2018-05-02T08:38:38.864Z,3.90
2018-05-02T08:41:07.058Z,4.00
2018-05-02T08:43:35.254Z,3.95
2018-05-02T08:46:03.418Z,4.03
2018-05-02T08:48:31.620Z,4.28
2018-05-02T08:50:59.780Z,3.70
2018-05-02T08:53:28.031Z,3.90
2018-05-02T08:55:56.334Z,4.07
2018-05-02T08:58:24.564Z,3.92
2018-05-02T09:00:52.786Z,3.40
2018-05-02T09:03:20.943Z,3.60
2018-05-02T09:05:49.094Z,4.10
2018-05-02T09:08:17.273Z,3.67
2018-05-02T09:10:45.444Z,3.30
2018-05-02T09:13:13.806Z,3.17
2018-05-02T09:15:42.012Z,3.00
2018-05-02T09:18:10.192Z,3.03
2018-05-02T09:20:38.377Z,3.15
2018-05-02T09:23:06.554Z,3.20
2018-05-02T09:25:35.073Z,3.22
2018-05-02T09:28:09.664Z,3.00
2018-05-02T09:30:38.349Z,2.80
2018-05-02T09:33:06.509Z,2.40
2018-05-02T09:35:34.698Z,2.47
2018-05-02T09:38:02.901Z,2.70
2018-05-02T09:40:31.041Z,2.28
2018-05-02T09:43:00.485Z,2.62
2018-05-02T09:45:30.484Z,2.67
2018-05-02T09:47:58.591Z,2.60
2018-05-02T09:50:26.854Z,2.60
2018-05-02T09:52:54.999Z,2.78
2018-05-02T09:55:23.158Z,2.92
2018-05-02T09:57:51.676Z,2.65
2018-05-02T10:00:20.294Z,2.70
2018-05-02T10:02:48.530Z,2.50
2018-05-02T10:05:16.701Z,3.17
2018-05-02T10:07:44.879Z,2.90
2018-05-02T10:10:13.048Z,2.90
2018-05-02T10:12:41.236Z,2.95
2018-05-02T10:15:09.426Z,2.53
2018-05-02T10:17:37.707Z,2.65
2018-05-02T10:20:06.288Z,2.53
2018-05-02T10:22:34.549Z,2.58
2018-05-02T10:25:02.719Z,2.28
2018-05-02T10:27:30.925Z,2.55
2018-05-02T10:29:59.077Z,2.60
2018-05-02T10:32:27.327Z,2.55
2018-05-02T10:34:55.585Z,2.60
2018-05-02T10:37:23.907Z,2.50
2018-05-02T10:39:52.186Z,2.62
2018-05-02T10:42:20.352Z,2.93
2018-05-02T10:44:48.527Z,2.58
2018-05-02T10:47:16.741Z,2.83
2018-05-02T10:49:44.902Z,2.50
2018-05-02T10:52:13.091Z,2.60
2018-05-02T10:54:42.867Z,2.80
2018-05-02T10:57:11.063Z,3.00
2018-05-02T10:59:39.260Z,2.60
2018-05-02T11:02:07.628Z,2.90
2018-05-02T11:04:35.803Z,3.25
2018-05-02T11:07:04.097Z,3.37
2018-05-02T11:09:32.264Z,3.20
2018-05-02T11:12:00.467Z,3.22
2018-05-02T11:14:28.675Z,3.03
2018-05-02T11:16:56.849Z,3.03
2018-05-02T11:19:25.436Z,3.97
2018-05-02T11:21:53.679Z,4.12
2018-05-02T11:24:21.761Z,3.70
2018-05-02T11:26:49.950Z,3.78
2018-05-02T11:29:18.150Z,3.70
2018-05-02T11:31:46.335Z,3.83
2018-05-02T11:34:14.504Z,3.80
2018-05-02T11:36:42.694Z,3.92
2018-05-02T11:39:10.866Z,3.67
2018-05-02T11:41:39.030Z,3.60
2018-05-02T11:44:07.189Z,3.80
2018-05-02T11:46:35.350Z,4.32
2018-05-02T11:49:03.537Z,4.30
2018-05-02T11:51:31.729Z,4.60
2018-05-02T11:53:59.894Z,4.27
2018-05-02T11:56:28.179Z,4.32
2018-05-02T11:58:56.430Z,4.10
2018-05-02T12:01:24.809Z,4.28
2018-05-02T12:03:53.324Z,4.32
2018-05-02T12:06:21.555Z,3.58
2018-05-02T12:08:49.791Z,3.78
2018-05-02T12:11:18.018Z,3.65
2018-05-02T12:13:46.455Z,3.67
2018-05-02T12:16:14.585Z,3.80
2018-05-02T12:18:42.753Z,3.70
2018-05-02T12:21:10.922Z,3.50
2018-05-02T12:23:39.095Z,3.20
2018-05-02T12:26:07.281Z,3.03
2018-05-02T12:28:35.463Z,3.00
2018-05-02T12:31:03.617Z,2.97
2018-05-02T12:33:31.819Z,3.05
2018-05-02T12:35:59.959Z,3.27
2018-05-02T12:38:28.489Z,3.12
2018-05-02T12:40:56.761Z,3.25
2018-05-02T12:43:24.925Z,3.20
2018-05-02T12:45:53.208Z,3.40
2018-05-02T12:48:21.433Z,3.37
2018-05-02T12:50:49.654Z,3.40
2018-05-02T12:53:17.893Z,3.12
2018-05-02T12:55:46.921Z,3.33
2018-05-02T12:58:15.300Z,3.25
2018-05-02T13:00:43.581Z,2.97
2018-05-02T13:03:11.989Z,3.20
2018-05-02T13:05:40.171Z,3.10
2018-05-02T13:08:08.443Z,3.30
2018-05-02T13:10:36.619Z,3.20
2018-05-02T13:13:04.790Z,3.33
2018-05-02T13:15:32.985Z,3.10
2018-05-02T13:18:01.144Z,3.35
2018-05-02T13:20:29.316Z,3.40
2018-05-02T13:22:57.465Z,3.30
2018-05-02T13:25:25.657Z,3.22
2018-05-02T13:27:53.850Z,3.10
2018-05-02T13:30:22.037Z,3.17
2018-05-02T13:32:50.181Z,2.90
2018-05-02T13:35:18.362Z,2.93
2018-05-02T13:37:46.543Z,2.83
2018-05-02T13:40:14.710Z,3.08
2018-05-02T13:42:42.870Z,3.17
2018-05-02T13:45:11.145Z,3.20
2018-05-02T13:47:39.320Z,3.28
2018-05-02T13:50:07.509Z,3.20
2018-05-02T13:52:35.653Z,3.00
2018-05-02T13:55:03.831Z,3.30
2018-05-02T13:57:32.004Z,3.20
2018-05-02T14:00:00.272Z,3.10
2018-05-02T14:02:28.465Z,3.60
2018-05-02T14:04:56.719Z,3.20
2018-05-02T14:07:24.880Z,3.57
2018-05-02T14:09:53.030Z,3.10
2018-05-02T14:12:21.420Z,3.00
2018-05-02T14:14:49.671Z,3.22
2018-05-02T14:17:17.873Z,3.37
2018-05-02T14:19:46.333Z,3.15
2018-05-02T14:22:14.491Z,3.40
2018-05-02T14:24:42.997Z,3.15
2018-05-02T14:27:13.122Z,3.00
2018-05-02T14:29:41.328Z,3.45
2018-05-02T14:32:09.580Z,3.20
2018-05-02T14:34:37.856Z,3.10
2018-05-02T14:37:05.998Z,3.28
2018-05-02T14:39:34.243Z,2.75
2018-05-02T14:42:02.492Z,3.20
2018-05-02T14:44:30.694Z,3.10
2018-05-02T14:46:58.871Z,4.55
2018-05-02T14:49:27.052Z,34.65
2018-05-02T14:51:55.220Z,3.72
2018-05-02T14:54:23.365Z,3.62
2018-05-02T14:56:51.553Z,3.03
2018-05-02T14:59:20.528Z,3.40
2018-05-02T15:01:48.720Z,6.22
2018-05-02T15:04:16.917Z,13.62
2018-05-02T15:06:45.074Z,2.90
2018-05-02T15:09:13.260Z,2.90
2018-05-02T15:11:41.435Z,2.70
2018-05-02T15:14:09.620Z,2.85
2018-05-02T15:16:37.782Z,2.70
2018-05-02T15:19:06.029Z,2.72
2018-05-02T15:21:34.200Z,2.80
2018-05-02T15:24:02.410Z,2.70
2018-05-02T15:26:30.574Z,2.70
2018-05-02T15:28:58.748Z,2.60
2018-05-02T15:31:26.905Z,2.60
2018-05-02T15:33:55.068Z,2.60
2018-05-02T15:36:23.233Z,2.60
2018-05-02T15:38:51.407Z,2.70
2018-05-02T15:41:19.571Z,3.22
2018-05-02T15:43:47.766Z,2.90
2018-05-02T15:46:15.907Z,2.47
2018-05-02T15:48:44.061Z,2.50
2018-05-02T15:51:12.236Z,2.42
2018-05-02T15:53:40.399Z,2.80
2018-05-02T15:56:09.264Z,2.42
2018-05-02T15:58:37.391Z,2.50
2018-05-02T16:01:05.587Z,2.72
2018-05-02T16:03:33.744Z,2.40
2018-05-02T16:06:01.914Z,2.00
2018-05-02T16:08:30.109Z,2.40
2018-05-02T16:10:58.314Z,2.30
2018-05-02T16:13:26.474Z,2.40
2018-05-02T16:15:54.634Z,2.40
2018-05-02T16:18:22.832Z,2.42
2018-05-02T16:20:51.045Z,2.37
2018-05-02T16:23:19.154Z,2.45
2018-05-02T16:25:47.317Z,2.45
2018-05-02T16:28:15.521Z,2.55
2018-05-02T16:30:43.705Z,2.40
2018-05-02T16:33:11.997Z,2.47
2018-05-02T16:35:40.436Z,2.58
2018-05-02T16:38:08.610Z,2.35
2018-05-02T16:40:36.776Z,2.33
2018-05-02T16:43:04.968Z,2.20
2018-05-02T16:45:33.158Z,2.30
2018-05-02T16:48:01.317Z,2.53
2018-05-02T16:50:29.562Z,2.45
2018-05-02T16:52:57.741Z,2.90
2018-05-02T16:55:25.942Z,2.90
2018-05-02T16:57:54.266Z,2.72
2018-05-02T17:00:22.437Z,3.10
2018-05-02T17:02:50.579Z,3.10
2018-05-02T17:05:18.767Z,2.87
2018-05-02T17:07:46.944Z,2.70
2018-05-02T17:10:15.103Z,2.80
2018-05-02T17:12:43.252Z,2.70
2018-05-02T17:15:11.402Z,2.57
2018-05-02T17:17:39.577Z,2.75
2018-05-02T17:20:07.751Z,2.62
2018-05-02T17:22:35.943Z,2.80
2018-05-02T17:25:04.124Z,2.80
2018-05-02T17:27:32.313Z,3.20
2018-05-02T17:30:00.581Z,2.90
2018-05-02T17:32:28.637Z,3.30
2018-05-02T17:34:56.790Z,2.97
2018-05-02T17:37:24.992Z,2.95
2018-05-02T17:39:53.124Z,2.65
2018-05-02T17:42:21.268Z,2.70
2018-05-02T17:44:49.468Z,2.80
2018-05-02T17:47:17.654Z,2.67
2018-05-02T17:49:46.127Z,2.60
2018-05-02T17:52:14.328Z,2.83
2018-05-02T17:54:42.486Z,3.05
2018-05-02T17:57:10.692Z,2.70
2018-05-02T17:59:38.870Z,2.80
2018-05-02T18:02:07.020Z,2.80
2018-05-02T18:04:35.201Z,2.60
2018-05-02T18:07:03.358Z,2.62
2018-05-02T18:09:31.539Z,2.70
2018-05-02T18:11:59.730Z,2.87
2018-05-02T18:14:27.919Z,2.70
2018-05-02T18:16:56.146Z,2.90
2018-05-02T18:19:24.309Z,2.50
2018-05-02T18:21:52.498Z,2.83
2018-05-02T18:24:20.685Z,2.40
2018-05-02T18:26:48.886Z,2.80
2018-05-02T18:29:17.073Z,2.80
2018-05-02T18:31:45.368Z,2.50
2018-05-02T18:34:13.518Z,2.60
2018-05-02T18:36:41.685Z,2.70
2018-05-02T18:39:09.853Z,2.60
2018-05-02T18:41:38.007Z,2.60
2018-05-02T18:44:06.209Z,2.58
2018-05-02T18:46:34.392Z,2.60
2018-05-02T18:49:02.539Z,2.40
2018-05-02T18:51:30.700Z,2.47
2018-05-02T18:53:58.856Z,2.40
2018-05-02T18:56:27.029Z,2.35
2018-05-02T18:58:55.201Z,2.40
2018-05-02T19:01:23.372Z,2.50
2018-05-02T19:03:51.618Z,2.62
2018-05-02T19:06:19.707Z,3.00
2018-05-02T19:08:47.873Z,2.80
2018-05-02T19:11:16.048Z,2.80
2018-05-02T19:14:01.322Z,2.60
2018-05-02T19:16:29.506Z,2.70
2018-05-02T19:19:15.626Z,2.90
2018-05-02T19:21:43.825Z,2.50
2018-05-02T19:24:11.979Z,3.10
2018-05-02T19:26:40.318Z,2.75
2018-05-02T19:29:08.533Z,2.30
2018-05-02T19:31:55.826Z,2.50
2018-05-02T19:34:24.009Z,2.70
2018-05-02T19:36:52.200Z,2.58
2018-05-02T19:39:20.366Z,2.72
2018-05-02T19:42:06.040Z,2.50
2018-05-02T19:44:34.226Z,2.40
2018-05-02T19:47:02.403Z,2.40
2018-05-02T19:49:30.587Z,2.70
2018-05-02T19:52:23.709Z,2.67
2018-05-02T19:54:52.173Z,2.80
2018-05-02T19:57:20.341Z,2.40
2018-05-02T19:59:48.479Z,2.80
2018-05-02T20:02:35.779Z,2.60
2018-05-02T20:05:03.955Z,2.53
2018-05-02T20:07:41.617Z,2.50
2018-05-02T20:10:34.767Z,2.55
2018-05-02T20:13:30.983Z,2.47
2018-05-02T20:15:59.132Z,2.30
2018-05-02T20:18:27.326Z,2.60
2018-05-02T20:20:55.476Z,2.58
2018-05-02T20:23:23.657Z,2.70
2018-05-02T20:25:51.817Z,2.50
2018-05-02T20:28:19.980Z,2.53
2018-05-02T20:30:49.572Z,2.60
2018-05-02T20:33:17.661Z,2.70
2018-05-02T20:35:45.857Z,2.78
2018-05-02T20:38:14.042Z,2.60
2018-05-02T20:40:42.187Z,2.70
2018-05-02T20:43:10.354Z,2.60
2018-05-02T20:45:38.528Z,2.80
2018-05-02T20:48:06.719Z,2.60
2018-05-02T20:50:34.891Z,2.87
2018-05-02T20:53:03.052Z,3.20
2018-05-02T20:55:31.245Z,3.03
2018-05-02T20:57:59.394Z,3.40
2018-05-02T21:00:27.550Z,3.30
2018-05-02T21:02:55.717Z,3.20
2018-05-02T21:05:24.304Z,3.78
2018-05-02T21:07:52.460Z,3.80
2018-05-02T21:10:20.633Z,3.70
2018-05-02T21:12:48.862Z,3.58
2018-05-02T21:15:17.003Z,3.78
2018-05-02T21:17:45.168Z,3.60
2018-05-02T21:20:13.327Z,3.97
2018-05-02T21:22:41.496Z,5.22
2018-05-02T21:25:10.035Z,5.55
2018-05-02T21:27:38.094Z,5.23
2018-05-02T21:30:06.267Z,5.30
2018-05-02T21:32:35.368Z,5.30
2018-05-02T21:35:03.548Z,5.25
2018-05-02T21:37:31.662Z,6.18
2018-05-02T21:39:59.845Z,7.72
2018-05-02T21:42:28.010Z,9.53
2018-05-02T21:44:56.184Z,9.60
2018-05-02T21:47:24.324Z,8.95
2018-05-02T21:49:52.495Z,9.20
2018-05-02T21:52:20.668Z,9.45
2018-05-02T21:54:48.934Z,9.40
2018-05-02T21:57:17.152Z,9.80
2018-05-02T21:59:45.382Z,10.10
2018-05-02T22:02:13.478Z,9.90
2018-05-02T22:04:41.673Z,9.30
2018-05-02T22:07:09.841Z,9.63
2018-05-02T22:09:38.033Z,9.98
2018-05-02T22:12:06.215Z,9.43
2018-05-02T22:14:34.415Z,9.40
2018-05-02T22:17:02.596Z,9.98
2018-05-02T22:19:30.775Z,10.03
2018-05-02T22:21:58.927Z,9.57
2018-05-02T22:24:27.110Z,9.48
2018-05-02T22:26:55.301Z,9.50
2018-05-02T22:29:23.457Z,9.70
2018-05-02T22:31:51.643Z,9.90
2018-05-02T22:34:19.789Z,9.32
2018-05-02T22:36:47.967Z,9.35
2018-05-02T22:39:16.156Z,9.73
2018-05-02T22:41:44.342Z,9.95
2018-05-02T22:44:12.520Z,10.47
2018-05-02T22:46:40.703Z,10.27
2018-05-02T22:49:08.870Z,10.70
2018-05-02T22:51:37.068Z,10.60
2018-05-02T22:54:05.276Z,10.73
2018-05-02T22:56:33.492Z,10.75
2018-05-02T22:59:01.688Z,10.82
2018-05-02T23:01:29.861Z,10.23
2018-05-02T23:03:58.064Z,11.38
2018-05-02T23:06:26.258Z,11.02
2018-05-02T23:08:55.262Z,12.55
2018-05-02T23:11:23.447Z,11.95
2018-05-02T23:13:51.876Z,12.07
2018-05-02T23:16:20.031Z,12.17
2018-05-02T23:18:48.360Z,12.57
2018-05-02T23:21:16.534Z,12.98
2018-05-02T23:23:45.114Z,13.10
2018-05-02T23:26:13.263Z,13.52
2018-05-02T23:28:41.463Z,15.65
2018-05-02T23:31:09.629Z,14.35
2018-05-02T23:33:37.869Z,15.37
2018-05-02T23:36:05.994Z,15.90
2018-05-02T23:38:34.206Z,16.20
2018-05-02T23:41:02.416Z,16.90
2018-05-02T23:43:30.614Z,16.65
2018-05-02T23:45:58.780Z,16.87
2018-05-02T23:48:26.952Z,18.08
2018-05-02T23:50:55.150Z,17.87
2018-05-02T23:53:23.300Z,18.23
2018-05-02T23:55:51.471Z,17.90
2018-05-02T23:58:19.624Z,18.55
